sensor_id;sensor_type;location;lat;lon;timestamp;P1;durP1;ratioP1;P2;durP2;ratioP2
59093;SDS011;44880;52.814;18.270;2023-07-08T00:00:58;12.90;;;8.10;;
59093;SDS011;44880;52.814;18.270;2023-07-08T00:03:45;13.40;;;7.60;;
59093;SDS011;44880;52.814;18.270;2023-07-08T00:06:18;10.40;;;7.00;;
59093;SDS011;44880;52.814;18.270;2023-07-08T00:08:50;11.60;;;7.10;;
59093;SDS011;44880;52.814;18.270;2023-07-08T00:13:52;11.30;;;7.10;;
59093;SDS011;44880;52.814;18.270;2023-07-08T00:16:24;12.30;;;7.00;;
59093;SDS011;44880;52.814;18.270;2023-07-08T00:18:56;11.70;;;6.80;;
59093;SDS011;44880;52.814;18.270;2023-07-08T00:21:28;13.40;;;7.20;;
59093;SDS011;44880;52.814;18.270;2023-07-08T00:23:59;12.00;;;6.40;;
59093;SDS011;44880;52.814;18.270;2023-07-08T00:26:31;10.80;;;6.00;;
59093;SDS011;44880;52.814;18.270;2023-07-08T00:31:35;12.50;;;6.90;;
59093;SDS011;44880;52.814;18.270;2023-07-08T00:34:06;11.00;;;6.80;;
59093;SDS011;44880;52.814;18.270;2023-07-08T00:36:38;12.90;;;7.40;;
59093;SDS011;44880;52.814;18.270;2023-07-08T00:39:13;11.80;;;7.60;;
59093;SDS011;44880;52.814;18.270;2023-07-08T00:41:45;12.80;;;7.80;;
59093;SDS011;44880;52.814;18.270;2023-07-08T00:46:50;12.10;;;7.50;;
59093;SDS011;44880;52.814;18.270;2023-07-08T00:49:31;12.50;;;8.10;;
59093;SDS011;44880;52.814;18.270;2023-07-08T00:52:19;11.40;;;7.90;;
59093;SDS011;44880;52.814;18.270;2023-07-08T00:54:53;12.70;;;8.60;;
59093;SDS011;44880;52.814;18.270;2023-07-08T00:57:26;11.80;;;7.40;;
59093;SDS011;44880;52.814;18.270;2023-07-08T00:59:59;12.40;;;7.00;;
59093;SDS011;44880;52.814;18.270;2023-07-08T01:02:35;10.90;;;6.80;;
59093;SDS011;44880;52.814;18.270;2023-07-08T01:05:09;11.20;;;6.70;;
59093;SDS011;44880;52.814;18.270;2023-07-08T01:07:42;12.50;;;7.10;;
59093;SDS011;44880;52.814;18.270;2023-07-08T01:10:17;11.60;;;7.10;;
59093;SDS011;44880;52.814;18.270;2023-07-08T01:12:51;12.30;;;7.40;;
59093;SDS011;44880;52.814;18.270;2023-07-08T01:15:27;12.30;;;8.00;;
59093;SDS011;44880;52.814;18.270;2023-07-08T01:18:02;11.80;;;7.90;;
59093;SDS011;44880;52.814;18.270;2023-07-08T01:20:35;12.40;;;7.80;;
59093;SDS011;44880;52.814;18.270;2023-07-08T01:23:07;12.70;;;8.10;;
59093;SDS011;44880;52.814;18.270;2023-07-08T01:25:39;13.80;;;8.80;;
59093;SDS011;44880;52.814;18.270;2023-07-08T01:28:13;12.30;;;8.10;;
59093;SDS011;44880;52.814;18.270;2023-07-08T01:30:45;12.50;;;7.50;;
59093;SDS011;44880;52.814;18.270;2023-07-08T01:33:18;14.30;;;7.90;;
59093;SDS011;44880;52.814;18.270;2023-07-08T01:35:51;12.20;;;7.10;;
59093;SDS011;44880;52.814;18.270;2023-07-08T01:38:25;12.20;;;6.70;;
59093;SDS011;44880;52.814;18.270;2023-07-08T01:40:57;12.00;;;7.30;;
59093;SDS011;44880;52.814;18.270;2023-07-08T01:43:29;11.20;;;6.90;;
59093;SDS011;44880;52.814;18.270;2023-07-08T01:46:00;12.30;;;8.00;;
59093;SDS011;44880;52.814;18.270;2023-07-08T01:48:35;11.80;;;7.80;;
59093;SDS011;44880;52.814;18.270;2023-07-08T01:51:08;13.30;;;7.60;;
59093;SDS011;44880;52.814;18.270;2023-07-08T01:53:40;12.30;;;7.90;;
59093;SDS011;44880;52.814;18.270;2023-07-08T01:56:13;11.00;;;7.60;;
59093;SDS011;44880;52.814;18.270;2023-07-08T01:58:45;13.30;;;8.50;;
59093;SDS011;44880;52.814;18.270;2023-07-08T02:01:17;12.60;;;8.10;;
59093;SDS011;44880;52.814;18.270;2023-07-08T02:03:48;12.30;;;8.20;;
59093;SDS011;44880;52.814;18.270;2023-07-08T02:06:22;11.70;;;7.90;;
59093;SDS011;44880;52.814;18.270;2023-07-08T02:08:54;13.80;;;8.20;;
59093;SDS011;44880;52.814;18.270;2023-07-08T02:11:27;14.10;;;8.00;;
59093;SDS011;44880;52.814;18.270;2023-07-08T02:13:59;11.50;;;7.80;;
59093;SDS011;44880;52.814;18.270;2023-07-08T02:16:32;12.60;;;8.10;;
59093;SDS011;44880;52.814;18.270;2023-07-08T02:19:03;12.20;;;8.10;;
59093;SDS011;44880;52.814;18.270;2023-07-08T02:21:35;14.80;;;8.40;;
59093;SDS011;44880;52.814;18.270;2023-07-08T02:24:07;14.40;;;9.10;;
59093;SDS011;44880;52.814;18.270;2023-07-08T02:26:39;14.30;;;9.80;;
59093;SDS011;44880;52.814;18.270;2023-07-08T02:29:11;12.30;;;8.50;;
59093;SDS011;44880;52.814;18.270;2023-07-08T02:31:42;13.50;;;9.20;;
59093;SDS011;44880;52.814;18.270;2023-07-08T02:34:15;13.60;;;9.30;;
59093;SDS011;44880;52.814;18.270;2023-07-08T02:36:47;13.30;;;8.80;;
59093;SDS011;44880;52.814;18.270;2023-07-08T02:39:20;13.50;;;8.60;;
59093;SDS011;44880;52.814;18.270;2023-07-08T02:41:52;13.00;;;8.60;;
59093;SDS011;44880;52.814;18.270;2023-07-08T02:44:24;11.90;;;8.70;;
59093;SDS011;44880;52.814;18.270;2023-07-08T02:46:56;13.90;;;9.10;;
59093;SDS011;44880;52.814;18.270;2023-07-08T02:49:30;13.20;;;8.20;;
59093;SDS011;44880;52.814;18.270;2023-07-08T02:52:02;13.70;;;8.90;;
59093;SDS011;44880;52.814;18.270;2023-07-08T02:57:04;14.40;;;8.70;;
59093;SDS011;44880;52.814;18.270;2023-07-08T02:59:36;14.60;;;8.50;;
59093;SDS011;44880;52.814;18.270;2023-07-08T03:02:08;13.20;;;9.20;;
59093;SDS011;44880;52.814;18.270;2023-07-08T03:04:40;13.60;;;9.10;;
59093;SDS011;44880;52.814;18.270;2023-07-08T03:07:12;13.50;;;9.30;;
59093;SDS011;44880;52.814;18.270;2023-07-08T03:09:43;14.50;;;9.10;;
59093;SDS011;44880;52.814;18.270;2023-07-08T03:12:15;13.30;;;8.60;;
59093;SDS011;44880;52.814;18.270;2023-07-08T03:14:47;13.40;;;8.30;;
59093;SDS011;44880;52.814;18.270;2023-07-08T03:17:18;12.10;;;7.50;;
59093;SDS011;44880;52.814;18.270;2023-07-08T03:19:50;12.60;;;7.80;;
59093;SDS011;44880;52.814;18.270;2023-07-08T03:22:22;14.60;;;8.60;;
59093;SDS011;44880;52.814;18.270;2023-07-08T03:24:54;13.20;;;8.60;;
59093;SDS011;44880;52.814;18.270;2023-07-08T03:27:25;12.80;;;8.90;;
59093;SDS011;44880;52.814;18.270;2023-07-08T03:29:57;13.00;;;9.50;;
59093;SDS011;44880;52.814;18.270;2023-07-08T03:32:29;15.10;;;9.50;;
59093;SDS011;44880;52.814;18.270;2023-07-08T03:35:01;15.70;;;9.60;;
59093;SDS011;44880;52.814;18.270;2023-07-08T03:40:03;14.20;;;9.00;;
59093;SDS011;44880;52.814;18.270;2023-07-08T03:42:38;13.70;;;9.80;;
59093;SDS011;44880;52.814;18.270;2023-07-08T03:45:10;13.80;;;9.50;;
59093;SDS011;44880;52.814;18.270;2023-07-08T03:47:42;13.00;;;9.10;;
59093;SDS011;44880;52.814;18.270;2023-07-08T03:50:17;13.00;;;8.50;;
59093;SDS011;44880;52.814;18.270;2023-07-08T03:52:50;13.00;;;8.60;;
59093;SDS011;44880;52.814;18.270;2023-07-08T03:55:24;12.80;;;8.40;;
59093;SDS011;44880;52.814;18.270;2023-07-08T03:57:57;12.60;;;8.70;;
59093;SDS011;44880;52.814;18.270;2023-07-08T04:00:30;13.90;;;8.90;;
59093;SDS011;44880;52.814;18.270;2023-07-08T04:03:02;14.80;;;9.70;;
59093;SDS011;44880;52.814;18.270;2023-07-08T04:05:35;13.80;;;9.80;;
59093;SDS011;44880;52.814;18.270;2023-07-08T04:10:36;13.20;;;9.50;;
59093;SDS011;44880;52.814;18.270;2023-07-08T04:13:08;13.40;;;9.40;;
59093;SDS011;44880;52.814;18.270;2023-07-08T04:15:40;13.80;;;9.60;;
59093;SDS011;44880;52.814;18.270;2023-07-08T04:18:15;13.90;;;10.10;;
59093;SDS011;44880;52.814;18.270;2023-07-08T04:20:46;13.60;;;9.50;;
59093;SDS011;44880;52.814;18.270;2023-07-08T04:23:21;13.30;;;8.90;;
59093;SDS011;44880;52.814;18.270;2023-07-08T04:28:24;11.70;;;8.00;;
59093;SDS011;44880;52.814;18.270;2023-07-08T04:30:55;14.50;;;9.50;;
59093;SDS011;44880;52.814;18.270;2023-07-08T04:33:27;15.40;;;9.30;;
59093;SDS011;44880;52.814;18.270;2023-07-08T04:35:59;14.20;;;9.70;;
59093;SDS011;44880;52.814;18.270;2023-07-08T04:38:31;15.80;;;9.50;;
59093;SDS011;44880;52.814;18.270;2023-07-08T04:41:05;16.20;;;9.40;;
59093;SDS011;44880;52.814;18.270;2023-07-08T04:43:36;13.90;;;9.70;;
59093;SDS011;44880;52.814;18.270;2023-07-08T04:46:14;14.10;;;9.50;;
59093;SDS011;44880;52.814;18.270;2023-07-08T04:48:50;13.90;;;9.80;;
59093;SDS011;44880;52.814;18.270;2023-07-08T04:51:21;13.40;;;9.40;;
59093;SDS011;44880;52.814;18.270;2023-07-08T04:53:53;14.70;;;9.90;;
59093;SDS011;44880;52.814;18.270;2023-07-08T04:56:33;13.70;;;9.80;;
59093;SDS011;44880;52.814;18.270;2023-07-08T04:59:13;15.20;;;9.70;;
59093;SDS011;44880;52.814;18.270;2023-07-08T05:01:46;15.60;;;9.20;;
59093;SDS011;44880;52.814;18.270;2023-07-08T05:04:19;13.80;;;9.40;;
59093;SDS011;44880;52.814;18.270;2023-07-08T05:07:03;12.90;;;9.50;;
59093;SDS011;44880;52.814;18.270;2023-07-08T05:12:05;12.70;;;8.40;;
59093;SDS011;44880;52.814;18.270;2023-07-08T05:14:38;13.30;;;8.50;;
59093;SDS011;44880;52.814;18.270;2023-07-08T05:17:11;14.80;;;8.90;;
59093;SDS011;44880;52.814;18.270;2023-07-08T05:19:43;14.50;;;9.10;;
59093;SDS011;44880;52.814;18.270;2023-07-08T05:22:19;14.00;;;8.80;;
59093;SDS011;44880;52.814;18.270;2023-07-08T05:24:56;12.40;;;8.40;;
59093;SDS011;44880;52.814;18.270;2023-07-08T05:27:28;13.00;;;9.00;;
59093;SDS011;44880;52.814;18.270;2023-07-08T05:30:01;13.90;;;9.80;;
59093;SDS011;44880;52.814;18.270;2023-07-08T05:32:39;13.20;;;10.20;;
59093;SDS011;44880;52.814;18.270;2023-07-08T05:35:14;13.90;;;9.90;;
59093;SDS011;44880;52.814;18.270;2023-07-08T05:37:46;14.50;;;9.80;;
59093;SDS011;44880;52.814;18.270;2023-07-08T05:40:18;12.80;;;9.20;;
59093;SDS011;44880;52.814;18.270;2023-07-08T05:42:50;15.00;;;10.70;;
59093;SDS011;44880;52.814;18.270;2023-07-08T05:45:22;14.40;;;9.50;;
59093;SDS011;44880;52.814;18.270;2023-07-08T05:47:53;13.70;;;10.20;;
59093;SDS011;44880;52.814;18.270;2023-07-08T05:50:25;15.00;;;10.40;;
59093;SDS011;44880;52.814;18.270;2023-07-08T05:53:01;15.20;;;9.40;;
59093;SDS011;44880;52.814;18.270;2023-07-08T05:55:33;12.40;;;9.30;;
59093;SDS011;44880;52.814;18.270;2023-07-08T05:58:04;15.60;;;9.90;;
59093;SDS011;44880;52.814;18.270;2023-07-08T06:00:37;13.20;;;9.00;;
59093;SDS011;44880;52.814;18.270;2023-07-08T06:03:22;16.10;;;9.00;;
59093;SDS011;44880;52.814;18.270;2023-07-08T06:05:54;13.80;;;9.60;;
59093;SDS011;44880;52.814;18.270;2023-07-08T06:08:26;13.80;;;8.70;;
59093;SDS011;44880;52.814;18.270;2023-07-08T06:10:58;12.70;;;8.90;;
59093;SDS011;44880;52.814;18.270;2023-07-08T06:13:33;14.10;;;9.30;;
59093;SDS011;44880;52.814;18.270;2023-07-08T06:16:05;13.10;;;8.30;;
59093;SDS011;44880;52.814;18.270;2023-07-08T06:18:36;11.20;;;6.90;;
59093;SDS011;44880;52.814;18.270;2023-07-08T06:21:08;10.40;;;6.90;;
59093;SDS011;44880;52.814;18.270;2023-07-08T06:23:40;12.50;;;7.30;;
59093;SDS011;44880;52.814;18.270;2023-07-08T06:26:12;11.70;;;6.90;;
59093;SDS011;44880;52.814;18.270;2023-07-08T06:28:44;14.00;;;8.90;;
59093;SDS011;44880;52.814;18.270;2023-07-08T06:31:15;12.80;;;8.90;;
59093;SDS011;44880;52.814;18.270;2023-07-08T06:33:47;11.60;;;5.20;;
59093;SDS011;44880;52.814;18.270;2023-07-08T06:38:50;9.50;;;4.30;;
59093;SDS011;44880;52.814;18.270;2023-07-08T06:43:56;11.00;;;6.00;;
59093;SDS011;44880;52.814;18.270;2023-07-08T06:46:32;11.80;;;5.40;;
59093;SDS011;44880;52.814;18.270;2023-07-08T06:51:40;11.60;;;6.10;;
59093;SDS011;44880;52.814;18.270;2023-07-08T06:54:21;9.40;;;4.90;;
59093;SDS011;44880;52.814;18.270;2023-07-08T06:56:53;10.70;;;4.90;;
59093;SDS011;44880;52.814;18.270;2023-07-08T07:01:56;10.50;;;4.80;;
59093;SDS011;44880;52.814;18.270;2023-07-08T07:09:30;7.40;;;3.60;;
59093;SDS011;44880;52.814;18.270;2023-07-08T07:12:04;9.10;;;3.70;;
59093;SDS011;44880;52.814;18.270;2023-07-08T07:14:39;8.60;;;4.10;;
59093;SDS011;44880;52.814;18.270;2023-07-08T07:17:11;9.70;;;4.90;;
59093;SDS011;44880;52.814;18.270;2023-07-08T07:19:45;9.10;;;4.50;;
59093;SDS011;44880;52.814;18.270;2023-07-08T07:22:17;9.20;;;3.90;;
59093;SDS011;44880;52.814;18.270;2023-07-08T07:24:58;7.20;;;3.20;;
59093;SDS011;44880;52.814;18.270;2023-07-08T07:27:30;8.80;;;3.80;;
59093;SDS011;44880;52.814;18.270;2023-07-08T07:30:02;10.10;;;4.30;;
59093;SDS011;44880;52.814;18.270;2023-07-08T07:32:38;10.30;;;3.90;;
59093;SDS011;44880;52.814;18.270;2023-07-08T07:35:10;8.10;;;3.20;;
59093;SDS011;44880;52.814;18.270;2023-07-08T07:37:43;9.40;;;3.40;;
59093;SDS011;44880;52.814;18.270;2023-07-08T07:42:45;10.10;;;3.50;;
59093;SDS011;44880;52.814;18.270;2023-07-08T07:45:17;10.60;;;3.90;;
59093;SDS011;44880;52.814;18.270;2023-07-08T07:47:51;8.50;;;3.20;;
59093;SDS011;44880;52.814;18.270;2023-07-08T07:50:22;8.70;;;3.60;;
59093;SDS011;44880;52.814;18.270;2023-07-08T07:55:24;8.00;;;3.70;;
59093;SDS011;44880;52.814;18.270;2023-07-08T08:00:46;8.00;;;3.40;;
59093;SDS011;44880;52.814;18.270;2023-07-08T08:03:18;7.90;;;3.00;;
59093;SDS011;44880;52.814;18.270;2023-07-08T08:05:51;7.50;;;3.40;;
59093;SDS011;44880;52.814;18.270;2023-07-08T08:08:24;9.40;;;3.50;;
59093;SDS011;44880;52.814;18.270;2023-07-08T08:10:56;8.60;;;3.30;;
59093;SDS011;44880;52.814;18.270;2023-07-08T08:13:28;8.60;;;3.70;;
59093;SDS011;44880;52.814;18.270;2023-07-08T08:15:59;7.80;;;3.10;;
59093;SDS011;44880;52.814;18.270;2023-07-08T08:18:41;7.40;;;2.90;;
59093;SDS011;44880;52.814;18.270;2023-07-08T08:21:17;6.50;;;2.70;;
59093;SDS011;44880;52.814;18.270;2023-07-08T08:23:54;7.70;;;3.00;;
59093;SDS011;44880;52.814;18.270;2023-07-08T08:26:30;7.20;;;2.80;;
59093;SDS011;44880;52.814;18.270;2023-07-08T08:29:06;8.40;;;3.10;;
59093;SDS011;44880;52.814;18.270;2023-07-08T08:31:40;7.60;;;2.80;;
59093;SDS011;44880;52.814;18.270;2023-07-08T08:34:15;6.70;;;2.60;;
59093;SDS011;44880;52.814;18.270;2023-07-08T08:36:47;8.50;;;2.80;;
59093;SDS011;44880;52.814;18.270;2023-07-08T08:39:19;6.70;;;2.90;;
59093;SDS011;44880;52.814;18.270;2023-07-08T08:41:50;6.30;;;2.50;;
59093;SDS011;44880;52.814;18.270;2023-07-08T08:44:30;6.60;;;2.80;;
59093;SDS011;44880;52.814;18.270;2023-07-08T08:47:05;6.50;;;2.60;;
59093;SDS011;44880;52.814;18.270;2023-07-08T08:49:55;8.20;;;2.50;;
59093;SDS011;44880;52.814;18.270;2023-07-08T08:52:33;7.10;;;2.90;;
59093;SDS011;44880;52.814;18.270;2023-07-08T08:55:08;6.30;;;2.60;;
59093;SDS011;44880;52.814;18.270;2023-07-08T08:57:45;6.10;;;2.40;;
59093;SDS011;44880;52.814;18.270;2023-07-08T09:00:28;9.20;;;2.70;;
59093;SDS011;44880;52.814;18.270;2023-07-08T09:03:04;9.00;;;2.60;;
59093;SDS011;44880;52.814;18.270;2023-07-08T09:05:40;8.20;;;2.90;;
59093;SDS011;44880;52.814;18.270;2023-07-08T09:08:18;7.00;;;3.00;;
59093;SDS011;44880;52.814;18.270;2023-07-08T09:10:55;7.60;;;3.20;;
59093;SDS011;44880;52.814;18.270;2023-07-08T09:13:35;8.40;;;3.10;;
59093;SDS011;44880;52.814;18.270;2023-07-08T09:16:15;6.50;;;2.50;;
59093;SDS011;44880;52.814;18.270;2023-07-08T09:18:53;6.90;;;2.80;;
59093;SDS011;44880;52.814;18.270;2023-07-08T09:21:37;9.40;;;2.80;;
59093;SDS011;44880;52.814;18.270;2023-07-08T09:24:18;7.30;;;3.00;;
59093;SDS011;44880;52.814;18.270;2023-07-08T09:26:52;7.00;;;2.60;;
59093;SDS011;44880;52.814;18.270;2023-07-08T09:29:32;7.60;;;2.70;;
59093;SDS011;44880;52.814;18.270;2023-07-08T09:32:14;7.20;;;3.00;;
59093;SDS011;44880;52.814;18.270;2023-07-08T09:34:52;7.10;;;2.60;;
59093;SDS011;44880;52.814;18.270;2023-07-08T09:37:35;8.10;;;2.90;;
59093;SDS011;44880;52.814;18.270;2023-07-08T09:40:15;7.10;;;2.50;;
59093;SDS011;44880;52.814;18.270;2023-07-08T09:43:00;6.90;;;2.60;;
59093;SDS011;44880;52.814;18.270;2023-07-08T09:45:41;7.40;;;2.50;;
59093;SDS011;44880;52.814;18.270;2023-07-08T09:48:23;6.40;;;2.60;;
59093;SDS011;44880;52.814;18.270;2023-07-08T09:51:08;6.40;;;2.60;;
59093;SDS011;44880;52.814;18.270;2023-07-08T09:53:40;8.60;;;2.60;;
59093;SDS011;44880;52.814;18.270;2023-07-08T09:56:12;6.50;;;2.20;;
59093;SDS011;44880;52.814;18.270;2023-07-08T09:58:55;6.10;;;2.40;;
59093;SDS011;44880;52.814;18.270;2023-07-08T10:01:27;7.30;;;2.60;;
59093;SDS011;44880;52.814;18.270;2023-07-08T10:04:02;7.40;;;3.00;;
59093;SDS011;44880;52.814;18.270;2023-07-08T10:06:55;6.90;;;2.60;;
59093;SDS011;44880;52.814;18.270;2023-07-08T10:09:27;8.00;;;2.60;;
59093;SDS011;44880;52.814;18.270;2023-07-08T10:12:00;7.60;;;2.50;;
59093;SDS011;44880;52.814;18.270;2023-07-08T10:14:40;6.50;;;2.40;;
59093;SDS011;44880;52.814;18.270;2023-07-08T10:17:15;6.50;;;2.70;;
59093;SDS011;44880;52.814;18.270;2023-07-08T10:19:48;7.60;;;3.00;;
59093;SDS011;44880;52.814;18.270;2023-07-08T10:28:11;6.50;;;2.50;;
59093;SDS011;44880;52.814;18.270;2023-07-08T10:30:53;7.20;;;2.60;;
59093;SDS011;44880;52.814;18.270;2023-07-08T10:34:00;7.40;;;2.70;;
59093;SDS011;44880;52.814;18.270;2023-07-08T10:36:45;6.20;;;2.20;;
59093;SDS011;44880;52.814;18.270;2023-07-08T10:42:23;6.40;;;2.40;;
59093;SDS011;44880;52.814;18.270;2023-07-08T10:45:08;7.40;;;2.80;;
59093;SDS011;44880;52.814;18.270;2023-07-08T10:47:48;8.70;;;2.20;;
59093;SDS011;44880;52.814;18.270;2023-07-08T10:53:28;7.90;;;2.60;;
59093;SDS011;44880;52.814;18.270;2023-07-08T10:56:11;6.10;;;2.40;;
59093;SDS011;44880;52.814;18.270;2023-07-08T10:58:58;8.60;;;2.60;;
59093;SDS011;44880;52.814;18.270;2023-07-08T11:04:36;6.40;;;2.30;;
59093;SDS011;44880;52.814;18.270;2023-07-08T11:07:16;6.60;;;2.40;;
59093;SDS011;44880;52.814;18.270;2023-07-08T11:10:05;6.20;;;2.40;;
59093;SDS011;44880;52.814;18.270;2023-07-08T11:12:42;6.70;;;2.40;;
59093;SDS011;44880;52.814;18.270;2023-07-08T11:15:40;6.80;;;2.30;;
59093;SDS011;44880;52.814;18.270;2023-07-08T11:18:17;6.80;;;2.20;;
59093;SDS011;44880;52.814;18.270;2023-07-08T11:20:55;7.20;;;2.50;;
59093;SDS011;44880;52.814;18.270;2023-07-08T11:23:33;6.90;;;2.20;;
59093;SDS011;44880;52.814;18.270;2023-07-08T11:26:18;7.00;;;2.60;;
59093;SDS011;44880;52.814;18.270;2023-07-08T11:29:12;6.50;;;2.30;;
59093;SDS011;44880;52.814;18.270;2023-07-08T11:31:46;6.90;;;2.40;;
59093;SDS011;44880;52.814;18.270;2023-07-08T11:34:35;7.10;;;2.20;;
59093;SDS011;44880;52.814;18.270;2023-07-08T11:37:08;6.70;;;2.40;;
59093;SDS011;44880;52.814;18.270;2023-07-08T11:39:41;7.10;;;2.40;;
59093;SDS011;44880;52.814;18.270;2023-07-08T11:45:08;7.90;;;2.30;;
59093;SDS011;44880;52.814;18.270;2023-07-08T11:47:44;6.80;;;2.30;;
59093;SDS011;44880;52.814;18.270;2023-07-08T11:50:54;6.60;;;2.30;;
59093;SDS011;44880;52.814;18.270;2023-07-08T11:56:28;8.20;;;2.30;;
59093;SDS011;44880;52.814;18.270;2023-07-08T12:01:53;6.00;;;2.30;;
59093;SDS011;44880;52.814;18.270;2023-07-08T12:04:32;7.40;;;2.30;;
59093;SDS011;44880;52.814;18.270;2023-07-08T12:07:31;8.60;;;2.60;;
59093;SDS011;44880;52.814;18.270;2023-07-08T12:10:06;6.60;;;2.20;;
59093;SDS011;44880;52.814;18.270;2023-07-08T12:12:53;7.30;;;2.30;;
59093;SDS011;44880;52.814;18.270;2023-07-08T12:15:26;5.90;;;2.20;;
59093;SDS011;44880;52.814;18.270;2023-07-08T12:18:00;6.70;;;2.30;;
59093;SDS011;44880;52.814;18.270;2023-07-08T12:20:47;5.90;;;2.20;;
59093;SDS011;44880;52.814;18.270;2023-07-08T12:23:27;7.10;;;2.50;;
59093;SDS011;44880;52.814;18.270;2023-07-08T12:25:59;7.10;;;2.40;;
59093;SDS011;44880;52.814;18.270;2023-07-08T12:28:59;6.80;;;2.40;;
59093;SDS011;44880;52.814;18.270;2023-07-08T12:31:31;6.10;;;2.30;;
59093;SDS011;44880;52.814;18.270;2023-07-08T12:34:29;7.30;;;2.50;;
59093;SDS011;44880;52.814;18.270;2023-07-08T12:37:01;7.40;;;2.50;;
59093;SDS011;44880;52.814;18.270;2023-07-08T12:42:28;6.40;;;2.50;;
59093;SDS011;44880;52.814;18.270;2023-07-08T12:45:00;6.30;;;2.30;;
59093;SDS011;44880;52.814;18.270;2023-07-08T12:53:50;8.30;;;2.90;;
59093;SDS011;44880;52.814;18.270;2023-07-08T12:56:23;6.40;;;2.40;;
59093;SDS011;44880;52.814;18.270;2023-07-08T12:59:10;7.10;;;2.60;;
59093;SDS011;44880;52.814;18.270;2023-07-08T13:01:48;6.10;;;2.30;;
59093;SDS011;44880;52.814;18.270;2023-07-08T13:04:21;6.10;;;2.20;;
59093;SDS011;44880;52.814;18.270;2023-07-08T13:07:15;6.70;;;2.40;;
59093;SDS011;44880;52.814;18.270;2023-07-08T13:10:16;6.10;;;2.40;;
59093;SDS011;44880;52.814;18.270;2023-07-08T13:12:50;5.90;;;2.30;;
59093;SDS011;44880;52.814;18.270;2023-07-08T13:15:24;6.40;;;2.50;;
59093;SDS011;44880;52.814;18.270;2023-07-08T13:18:15;6.60;;;2.70;;
59093;SDS011;44880;52.814;18.270;2023-07-08T13:21:00;6.60;;;2.50;;
59093;SDS011;44880;52.814;18.270;2023-07-08T13:23:53;6.90;;;2.40;;
59093;SDS011;44880;52.814;18.270;2023-07-08T13:26:32;7.40;;;2.70;;
59093;SDS011;44880;52.814;18.270;2023-07-08T13:29:09;7.70;;;2.50;;
59093;SDS011;44880;52.814;18.270;2023-07-08T13:32:11;6.70;;;2.30;;
59093;SDS011;44880;52.814;18.270;2023-07-08T13:34:43;7.10;;;2.60;;
59093;SDS011;44880;52.814;18.270;2023-07-08T13:37:37;7.80;;;2.60;;
59093;SDS011;44880;52.814;18.270;2023-07-08T13:40:09;7.70;;;2.80;;
59093;SDS011;44880;52.814;18.270;2023-07-08T13:45:43;6.70;;;2.20;;
59093;SDS011;44880;52.814;18.270;2023-07-08T13:48:24;6.40;;;2.70;;
59093;SDS011;44880;52.814;18.270;2023-07-08T13:51:21;6.70;;;2.60;;
59093;SDS011;44880;52.814;18.270;2023-07-08T13:53:56;7.80;;;2.80;;
59093;SDS011;44880;52.814;18.270;2023-07-08T13:56:51;7.20;;;2.80;;
59093;SDS011;44880;52.814;18.270;2023-07-08T13:59:24;6.70;;;2.50;;
59093;SDS011;44880;52.814;18.270;2023-07-08T14:02:16;6.40;;;2.50;;
59093;SDS011;44880;52.814;18.270;2023-07-08T14:04:50;6.30;;;2.40;;
59093;SDS011;44880;52.814;18.270;2023-07-08T14:07:26;6.50;;;2.50;;
59093;SDS011;44880;52.814;18.270;2023-07-08T14:10:14;7.00;;;2.40;;
59093;SDS011;44880;52.814;18.270;2023-07-08T14:12:46;6.50;;;2.40;;
59093;SDS011;44880;52.814;18.270;2023-07-08T14:15:19;5.90;;;2.30;;
59093;SDS011;44880;52.814;18.270;2023-07-08T14:18:20;7.10;;;2.50;;
59093;SDS011;44880;52.814;18.270;2023-07-08T14:20:52;7.30;;;2.40;;
59093;SDS011;44880;52.814;18.270;2023-07-08T14:23:39;6.30;;;2.50;;
59093;SDS011;44880;52.814;18.270;2023-07-08T14:26:11;5.70;;;2.30;;
59093;SDS011;44880;52.814;18.270;2023-07-08T14:28:44;7.10;;;2.20;;
59093;SDS011;44880;52.814;18.270;2023-07-08T14:34:12;7.20;;;2.70;;
59093;SDS011;44880;52.814;18.270;2023-07-08T14:37:04;6.80;;;2.30;;
59093;SDS011;44880;52.814;18.270;2023-07-08T14:39:49;6.90;;;2.60;;
59093;SDS011;44880;52.814;18.270;2023-07-08T14:42:20;7.50;;;2.70;;
59093;SDS011;44880;52.814;18.270;2023-07-08T14:45:08;7.40;;;2.70;;
59093;SDS011;44880;52.814;18.270;2023-07-08T14:47:40;6.30;;;2.40;;
59093;SDS011;44880;52.814;18.270;2023-07-08T14:50:15;7.50;;;2.60;;
59093;SDS011;44880;52.814;18.270;2023-07-08T14:53:01;7.60;;;3.00;;
59093;SDS011;44880;52.814;18.270;2023-07-08T14:55:33;7.40;;;2.70;;
59093;SDS011;44880;52.814;18.270;2023-07-08T14:58:05;8.10;;;2.70;;
59093;SDS011;44880;52.814;18.270;2023-07-08T15:00:56;6.70;;;2.80;;
59093;SDS011;44880;52.814;18.270;2023-07-08T15:03:30;6.90;;;2.50;;
59093;SDS011;44880;52.814;18.270;2023-07-08T15:06:16;6.80;;;2.40;;
59093;SDS011;44880;52.814;18.270;2023-07-08T15:08:51;7.60;;;2.40;;
59093;SDS011;44880;52.814;18.270;2023-07-08T15:11:23;6.30;;;2.40;;
59093;SDS011;44880;52.814;18.270;2023-07-08T15:14:04;7.20;;;2.70;;
59093;SDS011;44880;52.814;18.270;2023-07-08T15:16:43;6.00;;;2.20;;
59093;SDS011;44880;52.814;18.270;2023-07-08T15:19:15;6.90;;;2.30;;
59093;SDS011;44880;52.814;18.270;2023-07-08T15:24:45;6.00;;;2.30;;
59093;SDS011;44880;52.814;18.270;2023-07-08T15:27:17;6.70;;;2.50;;
59093;SDS011;44880;52.814;18.270;2023-07-08T15:32:44;6.10;;;2.20;;
59093;SDS011;44880;52.814;18.270;2023-07-08T15:38:08;8.40;;;2.70;;
59093;SDS011;44880;52.814;18.270;2023-07-08T15:40:39;6.20;;;2.30;;
59093;SDS011;44880;52.814;18.270;2023-07-08T15:45:58;6.30;;;2.60;;
59093;SDS011;44880;52.814;18.270;2023-07-08T15:48:32;7.10;;;2.70;;
59093;SDS011;44880;52.814;18.270;2023-07-08T15:51:04;6.50;;;2.80;;
59093;SDS011;44880;52.814;18.270;2023-07-08T15:53:54;6.10;;;2.50;;
59093;SDS011;44880;52.814;18.270;2023-07-08T15:56:26;6.50;;;2.60;;
59093;SDS011;44880;52.814;18.270;2023-07-08T15:59:04;7.80;;;2.80;;
59093;SDS011;44880;52.814;18.270;2023-07-08T16:02:01;6.60;;;2.40;;
59093;SDS011;44880;52.814;18.270;2023-07-08T16:04:49;7.00;;;2.60;;
59093;SDS011;44880;52.814;18.270;2023-07-08T16:07:24;7.10;;;2.70;;
59093;SDS011;44880;52.814;18.270;2023-07-08T16:09:56;7.60;;;2.90;;
59093;SDS011;44880;52.814;18.270;2023-07-08T16:12:28;6.70;;;2.60;;
59093;SDS011;44880;52.814;18.270;2023-07-08T16:15:25;8.00;;;2.80;;
59093;SDS011;44880;52.814;18.270;2023-07-08T16:17:58;7.50;;;2.80;;
59093;SDS011;44880;52.814;18.270;2023-07-08T16:20:43;7.20;;;2.50;;
59093;SDS011;44880;52.814;18.270;2023-07-08T16:23:18;6.40;;;2.50;;
59093;SDS011;44880;52.814;18.270;2023-07-08T16:25:52;5.70;;;2.40;;
59093;SDS011;44880;52.814;18.270;2023-07-08T16:28:29;7.60;;;2.80;;
59093;SDS011;44880;52.814;18.270;2023-07-08T16:31:18;6.60;;;2.80;;
59093;SDS011;44880;52.814;18.270;2023-07-08T16:33:51;8.00;;;2.80;;
59093;SDS011;44880;52.814;18.270;2023-07-08T16:36:34;7.60;;;3.10;;
59093;SDS011;44880;52.814;18.270;2023-07-08T16:39:12;7.30;;;2.60;;
59093;SDS011;44880;52.814;18.270;2023-07-08T16:41:44;8.40;;;2.90;;
59093;SDS011;44880;52.814;18.270;2023-07-08T16:44:26;7.00;;;2.80;;
59093;SDS011;44880;52.814;18.270;2023-07-08T16:47:03;7.40;;;2.70;;
59093;SDS011;44880;52.814;18.270;2023-07-08T16:49:37;6.20;;;2.80;;
59093;SDS011;44880;52.814;18.270;2023-07-08T16:52:26;7.80;;;3.00;;
59093;SDS011;44880;52.814;18.270;2023-07-08T16:54:58;6.30;;;2.60;;